sensor_id;sensor_type;location;lat;lon;timestamp;P1;durP1;ratioP1;P2;durP2;ratioP2
29378;SDS011;16362;47.202;15.258;2023-06-19T00:01:03;9.75;;;8.95;;
29378;SDS011;16362;47.202;15.258;2023-06-19T00:03:30;9.05;;;8.23;;
29378;SDS011;16362;47.202;15.258;2023-06-19T00:05:56;8.95;;;8.35;;
29378;SDS011;16362;47.202;15.258;2023-06-19T00:08:23;9.40;;;8.70;;
29378;SDS011;16362;47.202;15.258;2023-06-19T00:10:49;9.63;;;8.82;;
29378;SDS011;16362;47.202;15.258;2023-06-19T00:13:16;8.85;;;8.20;;
29378;SDS011;16362;47.202;15.258;2023-06-19T00:15:45;9.43;;;8.82;;
29378;SDS011;16362;47.202;15.258;2023-06-19T00:18:11;9.20;;;8.48;;
29378;SDS011;16362;47.202;15.258;2023-06-19T00:20:38;10.15;;;9.43;;
29378;SDS011;16362;47.202;15.258;2023-06-19T00:23:05;11.10;;;10.07;;
29378;SDS011;16362;47.202;15.258;2023-06-19T00:25:37;11.90;;;9.27;;
29378;SDS011;16362;47.202;15.258;2023-06-19T00:28:03;9.25;;;8.75;;
29378;SDS011;16362;47.202;15.258;2023-06-19T00:30:30;9.43;;;8.88;;
29378;SDS011;16362;47.202;15.258;2023-06-19T00:32:59;13.05;;;10.32;;
29378;SDS011;16362;47.202;15.258;2023-06-19T00:35:29;9.65;;;8.95;;
29378;SDS011;16362;47.202;15.258;2023-06-19T00:37:56;8.95;;;8.43;;
29378;SDS011;16362;47.202;15.258;2023-06-19T00:40:27;9.02;;;8.52;;
29378;SDS011;16362;47.202;15.258;2023-06-19T00:42:55;9.90;;;9.10;;
29378;SDS011;16362;47.202;15.258;2023-06-19T00:45:23;11.00;;;10.02;;
29378;SDS011;16362;47.202;15.258;2023-06-19T00:47:51;9.65;;;9.13;;
29378;SDS011;16362;47.202;15.258;2023-06-19T00:50:19;9.60;;;8.93;;
29378;SDS011;16362;47.202;15.258;2023-06-19T00:52:48;9.52;;;8.77;;
29378;SDS011;16362;47.202;15.258;2023-06-19T00:55:15;13.55;;;9.95;;
29378;SDS011;16362;47.202;15.258;2023-06-19T00:57:42;10.30;;;9.57;;
29378;SDS011;16362;47.202;15.258;2023-06-19T01:00:10;9.23;;;8.43;;
29378;SDS011;16362;47.202;15.258;2023-06-19T01:02:39;9.55;;;8.75;;
29378;SDS011;16362;47.202;15.258;2023-06-19T01:05:06;10.43;;;9.73;;
29378;SDS011;16362;47.202;15.258;2023-06-19T01:10:29;10.13;;;9.40;;
29378;SDS011;16362;47.202;15.258;2023-06-19T01:13:06;10.40;;;9.60;;
29378;SDS011;16362;47.202;15.258;2023-06-19T01:15:36;10.75;;;9.82;;
29378;SDS011;16362;47.202;15.258;2023-06-19T01:18:04;11.10;;;10.15;;
29378;SDS011;16362;47.202;15.258;2023-06-19T01:20:31;10.68;;;9.93;;
29378;SDS011;16362;47.202;15.258;2023-06-19T01:23:08;10.35;;;9.65;;
29378;SDS011;16362;47.202;15.258;2023-06-19T01:25:36;10.18;;;9.43;;
29378;SDS011;16362;47.202;15.258;2023-06-19T01:28:03;10.23;;;9.52;;
29378;SDS011;16362;47.202;15.258;2023-06-19T01:30:35;9.80;;;9.05;;
29378;SDS011;16362;47.202;15.258;2023-06-19T01:33:15;10.57;;;9.57;;
29378;SDS011;16362;47.202;15.258;2023-06-19T01:35:46;9.82;;;9.23;;
29378;SDS011;16362;47.202;15.258;2023-06-19T01:38:15;9.98;;;9.23;;
29378;SDS011;16362;47.202;15.258;2023-06-19T01:40:43;9.27;;;8.77;;
29378;SDS011;16362;47.202;15.258;2023-06-19T01:43:11;9.90;;;9.10;;
29378;SDS011;16362;47.202;15.258;2023-06-19T01:45:38;12.40;;;10.68;;
29378;SDS011;16362;47.202;15.258;2023-06-19T01:48:05;9.43;;;8.82;;
29378;SDS011;16362;47.202;15.258;2023-06-19T01:50:32;11.52;;;10.65;;
29378;SDS011;16362;47.202;15.258;2023-06-19T01:52:59;9.85;;;9.13;;
29378;SDS011;16362;47.202;15.258;2023-06-19T01:55:26;10.45;;;9.45;;
29378;SDS011;16362;47.202;15.258;2023-06-19T01:57:52;10.50;;;9.40;;
29378;SDS011;16362;47.202;15.258;2023-06-19T02:00:19;10.30;;;9.48;;
29378;SDS011;16362;47.202;15.258;2023-06-19T02:02:46;9.95;;;9.23;;
29378;SDS011;16362;47.202;15.258;2023-06-19T02:05:13;10.23;;;9.52;;
29378;SDS011;16362;47.202;15.258;2023-06-19T02:07:40;11.00;;;9.98;;
29378;SDS011;16362;47.202;15.258;2023-06-19T02:10:07;10.77;;;10.07;;
29378;SDS011;16362;47.202;15.258;2023-06-19T02:12:34;11.25;;;10.32;;
29378;SDS011;16362;47.202;15.258;2023-06-19T02:15:01;9.80;;;9.18;;
29378;SDS011;16362;47.202;15.258;2023-06-19T02:17:28;10.75;;;9.95;;
29378;SDS011;16362;47.202;15.258;2023-06-19T02:19:54;11.50;;;10.02;;
29378;SDS011;16362;47.202;15.258;2023-06-19T02:22:21;10.65;;;9.75;;
29378;SDS011;16362;47.202;15.258;2023-06-19T02:24:48;10.45;;;9.63;;
29378;SDS011;16362;47.202;15.258;2023-06-19T02:27:14;11.00;;;10.20;;
29378;SDS011;16362;47.202;15.258;2023-06-19T02:29:42;11.30;;;10.25;;
29378;SDS011;16362;47.202;15.258;2023-06-19T02:32:09;10.38;;;9.35;;
29378;SDS011;16362;47.202;15.258;2023-06-19T02:34:35;10.27;;;9.52;;
29378;SDS011;16362;47.202;15.258;2023-06-19T02:37:02;10.88;;;10.13;;
29378;SDS011;16362;47.202;15.258;2023-06-19T02:39:29;10.02;;;9.32;;
29378;SDS011;16362;47.202;15.258;2023-06-19T02:41:55;9.85;;;9.23;;
29378;SDS011;16362;47.202;15.258;2023-06-19T02:44:22;9.88;;;9.15;;
29378;SDS011;16362;47.202;15.258;2023-06-19T02:46:49;12.00;;;9.88;;
29378;SDS011;16362;47.202;15.258;2023-06-19T02:49:15;10.32;;;9.30;;
29378;SDS011;16362;47.202;15.258;2023-06-19T02:51:42;11.00;;;10.10;;
29378;SDS011;16362;47.202;15.258;2023-06-19T02:54:09;10.73;;;9.90;;
29378;SDS011;16362;47.202;15.258;2023-06-19T02:56:35;11.13;;;10.23;;
29378;SDS011;16362;47.202;15.258;2023-06-19T02:59:03;11.35;;;10.27;;
29378;SDS011;16362;47.202;15.258;2023-06-19T03:01:29;11.55;;;10.40;;
29378;SDS011;16362;47.202;15.258;2023-06-19T03:03:56;11.10;;;10.02;;
29378;SDS011;16362;47.202;15.258;2023-06-19T03:06:23;11.57;;;10.48;;
29378;SDS011;16362;47.202;15.258;2023-06-19T03:08:50;11.40;;;10.40;;
29378;SDS011;16362;47.202;15.258;2023-06-19T03:11:17;11.45;;;9.95;;
29378;SDS011;16362;47.202;15.258;2023-06-19T03:13:46;11.48;;;10.32;;
29378;SDS011;16362;47.202;15.258;2023-06-19T03:16:14;10.98;;;10.18;;
29378;SDS011;16362;47.202;15.258;2023-06-19T03:18:42;10.40;;;9.63;;
29378;SDS011;16362;47.202;15.258;2023-06-19T03:21:14;10.88;;;10.05;;
29378;SDS011;16362;47.202;15.258;2023-06-19T03:23:41;10.40;;;9.80;;
29378;SDS011;16362;47.202;15.258;2023-06-19T03:26:08;11.30;;;10.57;;
29378;SDS011;16362;47.202;15.258;2023-06-19T03:28:36;10.38;;;9.57;;
29378;SDS011;16362;47.202;15.258;2023-06-19T03:31:03;11.32;;;10.35;;
29378;SDS011;16362;47.202;15.258;2023-06-19T03:33:30;11.57;;;10.48;;
29378;SDS011;16362;47.202;15.258;2023-06-19T03:35:57;11.05;;;10.18;;
29378;SDS011;16362;47.202;15.258;2023-06-19T03:38:23;11.35;;;10.27;;
29378;SDS011;16362;47.202;15.258;2023-06-19T03:40:50;11.85;;;10.63;;
29378;SDS011;16362;47.202;15.258;2023-06-19T03:43:17;11.32;;;10.18;;
29378;SDS011;16362;47.202;15.258;2023-06-19T03:45:43;11.05;;;10.27;;
29378;SDS011;16362;47.202;15.258;2023-06-19T03:48:10;11.00;;;10.20;;
29378;SDS011;16362;47.202;15.258;2023-06-19T03:50:36;10.40;;;9.70;;
29378;SDS011;16362;47.202;15.258;2023-06-19T03:53:03;10.80;;;10.02;;
29378;SDS011;16362;47.202;15.258;2023-06-19T03:55:31;11.52;;;10.52;;
29378;SDS011;16362;47.202;15.258;2023-06-19T03:57:57;11.43;;;10.40;;
29378;SDS011;16362;47.202;15.258;2023-06-19T04:00:24;11.43;;;10.63;;
29378;SDS011;16362;47.202;15.258;2023-06-19T04:02:51;11.23;;;10.15;;
29378;SDS011;16362;47.202;15.258;2023-06-19T04:05:18;10.70;;;9.93;;
29378;SDS011;16362;47.202;15.258;2023-06-19T04:07:46;10.93;;;10.18;;
29378;SDS011;16362;47.202;15.258;2023-06-19T04:10:12;11.93;;;10.95;;
29378;SDS011;16362;47.202;15.258;2023-06-19T04:12:39;11.55;;;10.40;;
29378;SDS011;16362;47.202;15.258;2023-06-19T04:15:07;10.95;;;10.10;;
29378;SDS011;16362;47.202;15.258;2023-06-19T04:17:34;10.68;;;9.70;;
29378;SDS011;16362;47.202;15.258;2023-06-19T04:20:01;11.90;;;9.73;;
29378;SDS011;16362;47.202;15.258;2023-06-19T04:22:29;11.25;;;10.35;;
29378;SDS011;16362;47.202;15.258;2023-06-19T04:24:56;10.93;;;10.20;;
29378;SDS011;16362;47.202;15.258;2023-06-19T04:27:22;10.60;;;9.98;;
29378;SDS011;16362;47.202;15.258;2023-06-19T04:29:49;10.65;;;9.85;;
29378;SDS011;16362;47.202;15.258;2023-06-19T04:32:19;11.52;;;10.30;;
29378;SDS011;16362;47.202;15.258;2023-06-19T04:34:46;11.85;;;10.98;;
29378;SDS011;16362;47.202;15.258;2023-06-19T04:37:13;10.55;;;9.75;;
29378;SDS011;16362;47.202;15.258;2023-06-19T04:39:45;11.65;;;10.43;;
29378;SDS011;16362;47.202;15.258;2023-06-19T04:42:13;11.27;;;10.23;;
29378;SDS011;16362;47.202;15.258;2023-06-19T04:44:46;10.60;;;9.88;;
29378;SDS011;16362;47.202;15.258;2023-06-19T04:47:14;11.30;;;10.40;;
29378;SDS011;16362;47.202;15.258;2023-06-19T04:49:45;11.13;;;10.30;;
29378;SDS011;16362;47.202;15.258;2023-06-19T04:52:12;11.45;;;10.55;;
29378;SDS011;16362;47.202;15.258;2023-06-19T04:54:38;10.65;;;9.95;;
29378;SDS011;16362;47.202;15.258;2023-06-19T04:57:05;11.20;;;10.30;;
29378;SDS011;16362;47.202;15.258;2023-06-19T04:59:33;10.52;;;9.73;;
29378;SDS011;16362;47.202;15.258;2023-06-19T05:01:59;11.77;;;10.80;;
29378;SDS011;16362;47.202;15.258;2023-06-19T05:04:26;12.00;;;11.10;;
29378;SDS011;16362;47.202;15.258;2023-06-19T05:06:53;11.90;;;11.10;;
29378;SDS011;16362;47.202;15.258;2023-06-19T05:09:20;11.88;;;10.77;;
29378;SDS011;16362;47.202;15.258;2023-06-19T05:11:46;11.63;;;10.60;;
29378;SDS011;16362;47.202;15.258;2023-06-19T05:14:13;10.50;;;9.82;;
29378;SDS011;16362;47.202;15.258;2023-06-19T05:16:40;10.68;;;9.88;;
29378;SDS011;16362;47.202;15.258;2023-06-19T05:19:08;10.52;;;9.73;;
29378;SDS011;16362;47.202;15.258;2023-06-19T05:21:35;10.63;;;9.73;;
29378;SDS011;16362;47.202;15.258;2023-06-19T05:24:02;10.40;;;9.75;;
29378;SDS011;16362;47.202;15.258;2023-06-19T05:26:29;10.45;;;9.55;;
29378;SDS011;16362;47.202;15.258;2023-06-19T05:28:55;10.30;;;9.35;;
29378;SDS011;16362;47.202;15.258;2023-06-19T05:31:22;10.00;;;9.20;;
29378;SDS011;16362;47.202;15.258;2023-06-19T05:33:49;10.75;;;9.85;;
29378;SDS011;16362;47.202;15.258;2023-06-19T05:36:15;11.40;;;10.27;;
29378;SDS011;16362;47.202;15.258;2023-06-19T05:38:42;11.32;;;10.43;;
29378;SDS011;16362;47.202;15.258;2023-06-19T05:41:09;10.30;;;9.43;;
29378;SDS011;16362;47.202;15.258;2023-06-19T05:43:36;11.70;;;9.57;;
29378;SDS011;16362;47.202;15.258;2023-06-19T05:46:02;10.43;;;9.48;;
29378;SDS011;16362;47.202;15.258;2023-06-19T05:48:29;10.95;;;10.00;;
29378;SDS011;16362;47.202;15.258;2023-06-19T05:50:56;10.32;;;9.43;;
29378;SDS011;16362;47.202;15.258;2023-06-19T05:53:22;10.07;;;9.32;;
29378;SDS011;16362;47.202;15.258;2023-06-19T05:55:49;12.75;;;9.93;;
29378;SDS011;16362;47.202;15.258;2023-06-19T05:58:16;11.02;;;10.18;;
29378;SDS011;16362;47.202;15.258;2023-06-19T06:00:46;9.95;;;9.13;;
29378;SDS011;16362;47.202;15.258;2023-06-19T06:03:13;9.98;;;9.15;;
29378;SDS011;16362;47.202;15.258;2023-06-19T06:05:40;9.93;;;9.13;;
29378;SDS011;16362;47.202;15.258;2023-06-19T06:08:08;10.18;;;9.32;;
29378;SDS011;16362;47.202;15.258;2023-06-19T06:10:35;10.75;;;9.75;;
29378;SDS011;16362;47.202;15.258;2023-06-19T06:13:01;10.77;;;9.75;;
29378;SDS011;16362;47.202;15.258;2023-06-19T06:15:28;9.55;;;8.60;;
29378;SDS011;16362;47.202;15.258;2023-06-19T06:17:55;10.48;;;9.57;;
29378;SDS011;16362;47.202;15.258;2023-06-19T06:20:22;16.42;;;10.20;;
29378;SDS011;16362;47.202;15.258;2023-06-19T06:22:49;12.38;;;9.63;;
29378;SDS011;16362;47.202;15.258;2023-06-19T06:25:16;12.70;;;9.90;;
29378;SDS011;16362;47.202;15.258;2023-06-19T06:27:43;10.77;;;9.88;;
29378;SDS011;16362;47.202;15.258;2023-06-19T06:30:10;10.73;;;9.73;;
29378;SDS011;16362;47.202;15.258;2023-06-19T06:32:38;11.98;;;11.00;;
29378;SDS011;16362;47.202;15.258;2023-06-19T06:35:05;26.38;;;18.38;;
29378;SDS011;16362;47.202;15.258;2023-06-19T06:37:32;12.23;;;11.23;;
29378;SDS011;16362;47.202;15.258;2023-06-19T06:39:58;10.57;;;9.60;;
29378;SDS011;16362;47.202;15.258;2023-06-19T06:42:25;12.27;;;9.15;;
29378;SDS011;16362;47.202;15.258;2023-06-19T06:44:52;9.98;;;9.20;;
29378;SDS011;16362;47.202;15.258;2023-06-19T06:47:19;10.13;;;9.10;;
29378;SDS011;16362;47.202;15.258;2023-06-19T06:49:45;10.27;;;9.43;;
29378;SDS011;16362;47.202;15.258;2023-06-19T06:52:12;10.90;;;9.80;;
29378;SDS011;16362;47.202;15.258;2023-06-19T06:54:39;12.68;;;9.50;;
29378;SDS011;16362;47.202;15.258;2023-06-19T06:57:06;9.70;;;8.93;;
29378;SDS011;16362;47.202;15.258;2023-06-19T06:59:32;10.18;;;9.40;;
29378;SDS011;16362;47.202;15.258;2023-06-19T07:01:59;10.02;;;9.20;;
29378;SDS011;16362;47.202;15.258;2023-06-19T07:04:26;9.88;;;8.95;;
29378;SDS011;16362;47.202;15.258;2023-06-19T07:06:53;10.40;;;9.32;;
29378;SDS011;16362;47.202;15.258;2023-06-19T07:09:19;10.48;;;9.68;;
29378;SDS011;16362;47.202;15.258;2023-06-19T07:11:47;10.25;;;9.25;;
29378;SDS011;16362;47.202;15.258;2023-06-19T07:14:18;9.68;;;8.70;;
29378;SDS011;16362;47.202;15.258;2023-06-19T07:16:45;9.60;;;8.90;;
29378;SDS011;16362;47.202;15.258;2023-06-19T07:19:12;10.35;;;9.35;;
29378;SDS011;16362;47.202;15.258;2023-06-19T07:21:40;10.95;;;8.93;;
29378;SDS011;16362;47.202;15.258;2023-06-19T07:24:07;8.40;;;8.00;;
29378;SDS011;16362;47.202;15.258;2023-06-19T07:26:34;9.52;;;8.95;;
29378;SDS011;16362;47.202;15.258;2023-06-19T07:29:01;8.85;;;8.23;;
29378;SDS011;16362;47.202;15.258;2023-06-19T07:31:28;9.05;;;8.38;;
29378;SDS011;16362;47.202;15.258;2023-06-19T07:33:55;9.15;;;8.57;;
29378;SDS011;16362;47.202;15.258;2023-06-19T07:36:22;9.30;;;8.25;;
29378;SDS011;16362;47.202;15.258;2023-06-19T07:38:48;8.88;;;8.27;;
29378;SDS011;16362;47.202;15.258;2023-06-19T07:41:15;10.13;;;8.93;;
29378;SDS011;16362;47.202;15.258;2023-06-19T07:43:42;9.02;;;8.38;;
29378;SDS011;16362;47.202;15.258;2023-06-19T07:46:09;9.52;;;9.02;;
29378;SDS011;16362;47.202;15.258;2023-06-19T07:48:36;10.30;;;8.68;;
29378;SDS011;16362;47.202;15.258;2023-06-19T07:51:02;9.63;;;8.70;;
29378;SDS011;16362;47.202;15.258;2023-06-19T07:53:29;8.70;;;8.30;;
29378;SDS011;16362;47.202;15.258;2023-06-19T07:55:56;8.80;;;8.40;;
29378;SDS011;16362;47.202;15.258;2023-06-19T07:58:22;9.10;;;8.35;;
29378;SDS011;16362;47.202;15.258;2023-06-19T08:00:49;9.25;;;8.52;;
29378;SDS011;16362;47.202;15.258;2023-06-19T08:03:16;9.00;;;8.15;;
29378;SDS011;16362;47.202;15.258;2023-06-19T08:05:43;10.13;;;9.52;;
29378;SDS011;16362;47.202;15.258;2023-06-19T08:08:11;8.80;;;8.23;;
29378;SDS011;16362;47.202;15.258;2023-06-19T08:10:38;9.70;;;9.00;;
29378;SDS011;16362;47.202;15.258;2023-06-19T08:13:05;8.85;;;8.13;;
29378;SDS011;16362;47.202;15.258;2023-06-19T08:15:32;9.35;;;8.75;;
29378;SDS011;16362;47.202;15.258;2023-06-19T08:17:58;9.15;;;8.43;;
29378;SDS011;16362;47.202;15.258;2023-06-19T08:20:25;9.02;;;8.50;;
29378;SDS011;16362;47.202;15.258;2023-06-19T08:22:52;9.35;;;8.52;;
29378;SDS011;16362;47.202;15.258;2023-06-19T08:25:19;9.52;;;8.80;;
29378;SDS011;16362;47.202;15.258;2023-06-19T08:27:46;8.98;;;8.43;;
29378;SDS011;16362;47.202;15.258;2023-06-19T08:30:13;9.45;;;8.80;;
29378;SDS011;16362;47.202;15.258;2023-06-19T08:32:39;10.18;;;9.25;;
29378;SDS011;16362;47.202;15.258;2023-06-19T08:35:06;10.07;;;9.32;;
29378;SDS011;16362;47.202;15.258;2023-06-19T08:37:34;8.85;;;8.25;;
29378;SDS011;16362;47.202;15.258;2023-06-19T08:40:00;9.95;;;9.07;;
29378;SDS011;16362;47.202;15.258;2023-06-19T08:42:27;9.35;;;8.65;;
29378;SDS011;16362;47.202;15.258;2023-06-19T08:44:54;9.85;;;9.15;;
29378;SDS011;16362;47.202;15.258;2023-06-19T08:47:20;10.57;;;9.68;;
29378;SDS011;16362;47.202;15.258;2023-06-19T08:49:47;9.75;;;8.80;;
29378;SDS011;16362;47.202;15.258;2023-06-19T08:52:14;9.48;;;8.85;;
29378;SDS011;16362;47.202;15.258;2023-06-19T08:54:40;10.82;;;9.90;;
29378;SDS011;16362;47.202;15.258;2023-06-19T08:57:10;9.55;;;8.75;;
29378;SDS011;16362;47.202;15.258;2023-06-19T08:59:38;9.23;;;8.68;;
29378;SDS011;16362;47.202;15.258;2023-06-19T09:02:05;9.13;;;8.63;;
29378;SDS011;16362;47.202;15.258;2023-06-19T09:04:32;9.05;;;8.48;;
29378;SDS011;16362;47.202;15.258;2023-06-19T09:07:01;9.52;;;8.82;;
29378;SDS011;16362;47.202;15.258;2023-06-19T09:09:29;9.02;;;8.63;;
29378;SDS011;16362;47.202;15.258;2023-06-19T09:14:33;10.02;;;9.38;;
29378;SDS011;16362;47.202;15.258;2023-06-19T09:19:29;9.38;;;8.77;;
29378;SDS011;16362;47.202;15.258;2023-06-19T09:21:59;9.55;;;8.88;;
29378;SDS011;16362;47.202;15.258;2023-06-19T09:24:36;9.45;;;8.60;;
29378;SDS011;16362;47.202;15.258;2023-06-19T09:27:09;8.85;;;8.27;;
29378;SDS011;16362;47.202;15.258;2023-06-19T09:29:40;9.38;;;8.63;;
29378;SDS011;16362;47.202;15.258;2023-06-19T09:32:41;9.27;;;8.40;;
29378;SDS011;16362;47.202;15.258;2023-06-19T09:35:01;17.63;;;8.65;;
29378;SDS011;16362;47.202;15.258;2023-06-19T09:37:29;8.65;;;7.93;;
29378;SDS011;16362;47.202;15.258;2023-06-19T09:40:00;8.65;;;8.10;;
29378;SDS011;16362;47.202;15.258;2023-06-19T09:42:41;10.18;;;8.18;;
29378;SDS011;16362;47.202;15.258;2023-06-19T09:45:10;8.65;;;8.13;;
29378;SDS011;16362;47.202;15.258;2023-06-19T09:47:39;8.65;;;8.15;;
29378;SDS011;16362;47.202;15.258;2023-06-19T09:52:40;8.30;;;7.55;;
29378;SDS011;16362;47.202;15.258;2023-06-19T09:55:10;8.55;;;7.93;;
29378;SDS011;16362;47.202;15.258;2023-06-19T09:57:40;8.05;;;7.50;;
29378;SDS011;16362;47.202;15.258;2023-06-19T10:00:08;8.00;;;7.47;;
29378;SDS011;16362;47.202;15.258;2023-06-19T10:02:42;8.00;;;7.60;;
29378;SDS011;16362;47.202;15.258;2023-06-19T10:05:10;8.73;;;8.23;;
29378;SDS011;16362;47.202;15.258;2023-06-19T10:07:42;9.35;;;8.23;;
29378;SDS011;16362;47.202;15.258;2023-06-19T10:10:11;7.55;;;7.25;;
29378;SDS011;16362;47.202;15.258;2023-06-19T10:12:48;8.30;;;7.70;;
29378;SDS011;16362;47.202;15.258;2023-06-19T10:17:58;9.43;;;8.65;;
29378;SDS011;16362;47.202;15.258;2023-06-19T10:23:15;9.55;;;8.70;;
29378;SDS011;16362;47.202;15.258;2023-06-19T10:25:47;8.65;;;8.07;;
29378;SDS011;16362;47.202;15.258;2023-06-19T10:28:27;9.02;;;8.32;;
29378;SDS011;16362;47.202;15.258;2023-06-19T10:30:59;8.45;;;8.00;;
29378;SDS011;16362;47.202;15.258;2023-06-19T10:33:31;8.55;;;7.93;;
29378;SDS011;16362;47.202;15.258;2023-06-19T10:36:15;9.43;;;8.73;;
29378;SDS011;16362;47.202;15.258;2023-06-19T10:38:42;9.55;;;8.95;;
29378;SDS011;16362;47.202;15.258;2023-06-19T10:41:16;10.27;;;9.32;;
29378;SDS011;16362;47.202;15.258;2023-06-19T10:43:52;9.50;;;9.00;;
29378;SDS011;16362;47.202;15.258;2023-06-19T10:46:21;10.27;;;9.30;;
29378;SDS011;16362;47.202;15.258;2023-06-19T10:48:50;9.48;;;8.88;;
29378;SDS011;16362;47.202;15.258;2023-06-19T10:51:18;10.27;;;9.30;;
29378;SDS011;16362;47.202;15.258;2023-06-19T10:53:47;13.18;;;9.88;;
29378;SDS011;16362;47.202;15.258;2023-06-19T10:56:15;9.85;;;9.23;;
29378;SDS011;16362;47.202;15.258;2023-06-19T10:58:46;10.52;;;9.75;;
29378;SDS011;16362;47.202;15.258;2023-06-19T11:01:12;9.40;;;8.98;;
29378;SDS011;16362;47.202;15.258;2023-06-19T11:03:39;10.50;;;9.82;;
29378;SDS011;16362;47.202;15.258;2023-06-19T11:06:06;9.27;;;8.77;;
29378;SDS011;16362;47.202;15.258;2023-06-19T11:08:33;9.40;;;8.70;;
29378;SDS011;16362;47.202;15.258;2023-06-19T11:11:00;11.65;;;8.63;;
29378;SDS011;16362;47.202;15.258;2023-06-19T11:13:27;7.70;;;7.15;;
29378;SDS011;16362;47.202;15.258;2023-06-19T11:15:54;9.10;;;8.20;;
29378;SDS011;16362;47.202;15.258;2023-06-19T11:18:20;7.93;;;7.55;;
29378;SDS011;16362;47.202;15.258;2023-06-19T11:20:48;6.47;;;6.28;;
29378;SDS011;16362;47.202;15.258;2023-06-19T11:23:17;7.95;;;7.30;;
29378;SDS011;16362;47.202;15.258;2023-06-19T11:25:52;6.30;;;5.82;;
29378;SDS011;16362;47.202;15.258;2023-06-19T11:28:18;6.85;;;6.45;;
29378;SDS011;16362;47.202;15.258;2023-06-19T11:30:48;8.50;;;5.85;;
29378;SDS011;16362;47.202;15.258;2023-06-19T11:33:23;5.82;;;5.47;;
29378;SDS011;16362;47.202;15.258;2023-06-19T11:35:51;5.05;;;4.85;;
29378;SDS011;16362;47.202;15.258;2023-06-19T11:38:23;5.28;;;4.85;;
29378;SDS011;16362;47.202;15.258;2023-06-19T11:40:52;5.53;;;5.13;;
29378;SDS011;16362;47.202;15.258;2023-06-19T11:43:24;5.00;;;4.80;;
29378;SDS011;16362;47.202;15.258;2023-06-19T11:45:52;5.20;;;5.00;;
29378;SDS011;16362;47.202;15.258;2023-06-19T11:48:22;4.95;;;4.75;;
29378;SDS011;16362;47.202;15.258;2023-06-19T11:50:50;5.65;;;5.30;;
29378;SDS011;16362;47.202;15.258;2023-06-19T11:53:19;5.22;;;4.90;;
29378;SDS011;16362;47.202;15.258;2023-06-19T11:55:46;4.80;;;4.60;;
29378;SDS011;16362;47.202;15.258;2023-06-19T11:58:13;5.93;;;5.55;;
29378;SDS011;16362;47.202;15.258;2023-06-19T12:00:42;4.95;;;4.75;;
29378;SDS011;16362;47.202;15.258;2023-06-19T12:03:10;5.55;;;5.35;;
29378;SDS011;16362;47.202;15.258;2023-06-19T12:05:37;6.28;;;5.78;;
29378;SDS011;16362;47.202;15.258;2023-06-19T12:08:04;5.47;;;5.28;;
29378;SDS011;16362;47.202;15.258;2023-06-19T12:10:33;5.90;;;5.40;;
29378;SDS011;16362;47.202;15.258;2023-06-19T12:13:00;5.80;;;5.60;;
29378;SDS011;16362;47.202;15.258;2023-06-19T12:15:27;6.20;;;5.72;;
29378;SDS011;16362;47.202;15.258;2023-06-19T12:17:54;5.45;;;5.25;;
29378;SDS011;16362;47.202;15.258;2023-06-19T12:20:24;6.53;;;6.00;;
29378;SDS011;16362;47.202;15.258;2023-06-19T12:22:52;6.80;;;6.50;;
29378;SDS011;16362;47.202;15.258;2023-06-19T12:25:19;6.20;;;5.90;;
29378;SDS011;16362;47.202;15.258;2023-06-19T12:27:45;12.98;;;6.55;;
29378;SDS011;16362;47.202;15.258;2023-06-19T12:30:12;6.28;;;5.78;;
29378;SDS011;16362;47.202;15.258;2023-06-19T12:32:39;6.07;;;5.88;;
29378;SDS011;16362;47.202;15.258;2023-06-19T12:35:06;6.30;;;5.88;;
29378;SDS011;16362;47.202;15.258;2023-06-19T12:37:33;5.78;;;5.57;;
29378;SDS011;16362;47.202;15.258;2023-06-19T12:40:00;5.45;;;5.15;;
29378;SDS011;16362;47.202;15.258;2023-06-19T12:42:27;5.47;;;5.22;;
29378;SDS011;16362;47.202;15.258;2023-06-19T12:44:54;9.00;;;5.30;;
29378;SDS011;16362;47.202;15.258;2023-06-19T12:47:20;4.70;;;4.60;;
29378;SDS011;16362;47.202;15.258;2023-06-19T12:49:47;5.93;;;4.68;;
29378;SDS011;16362;47.202;15.258;2023-06-19T12:52:14;5.20;;;4.93;;
29378;SDS011;16362;47.202;15.258;2023-06-19T12:54:40;5.40;;;4.97;;
29378;SDS011;16362;47.202;15.258;2023-06-19T12:57:08;5.90;;;5.35;;
29378;SDS011;16362;47.202;15.258;2023-06-19T12:59:35;4.90;;;4.60;;
29378;SDS011;16362;47.202;15.258;2023-06-19T13:02:02;4.78;;;4.57;;
29378;SDS011;16362;47.202;15.258;2023-06-19T13:04:30;4.82;;;4.57;;
29378;SDS011;16362;47.202;15.258;2023-06-19T13:06:57;6.00;;;5.80;;
29378;SDS011;16362;47.202;15.258;2023-06-19T13:09:23;6.78;;;6.28;;
29378;SDS011;16362;47.202;15.258;2023-06-19T13:11:50;6.25;;;5.95;;
29378;SDS011;16362;47.202;15.258;2023-06-19T13:14:17;5.13;;;4.93;;
29378;SDS011;16362;47.202;15.258;2023-06-19T13:16:44;5.50;;;5.20;;
29378;SDS011;16362;47.202;15.258;2023-06-19T13:19:13;5.45;;;5.22;;
29378;SDS011;16362;47.202;15.258;2023-06-19T13:21:41;5.03;;;4.63;;
29378;SDS011;16362;47.202;15.258;2023-06-19T13:24:08;4.50;;;4.30;;
29378;SDS011;16362;47.202;15.258;2023-06-19T13:26:35;4.78;;;4.57;;
29378;SDS011;16362;47.202;15.258;2023-06-19T13:29:02;4.57;;;4.38;;
29378;SDS011;16362;47.202;15.258;2023-06-19T13:31:29;4.60;;;4.40;;
29378;SDS011;16362;47.202;15.258;2023-06-19T13:33:55;6.75;;;6.25;;
29378;SDS011;16362;47.202;15.258;2023-06-19T13:36:22;9.23;;;8.45;;
29378;SDS011;16362;47.202;15.258;2023-06-19T13:38:50;9.38;;;8.52;;
29378;SDS011;16362;47.202;15.258;2023-06-19T13:41:18;9.68;;;9.07;;
29378;SDS011;16362;47.202;15.258;2023-06-19T13:43:45;9.73;;;9.15;;
29378;SDS011;16362;47.202;15.258;2023-06-19T13:46:12;9.60;;;9.10;;
29378;SDS011;16362;47.202;15.258;2023-06-19T13:48:39;15.27;;;9.85;;
29378;SDS011;16362;47.202;15.258;2023-06-19T13:51:05;10.20;;;9.32;;
29378;SDS011;16362;47.202;15.258;2023-06-19T13:53:32;10.45;;;9.77;;
29378;SDS011;16362;47.202;15.258;2023-06-19T13:55:59;10.50;;;9.75;;
29378;SDS011;16362;47.202;15.258;2023-06-19T13:58:26;10.85;;;10.00;;
29378;SDS011;16362;47.202;15.258;2023-06-19T14:00:52;11.23;;;10.48;;
29378;SDS011;16362;47.202;15.258;2023-06-19T14:03:19;10.00;;;9.23;;
29378;SDS011;16362;47.202;15.258;2023-06-19T14:05:46;9.80;;;9.30;;
29378;SDS011;16362;47.202;15.258;2023-06-19T14:08:13;10.25;;;9.43;;
29378;SDS011;16362;47.202;15.258;2023-06-19T14:10:40;9.55;;;8.85;;
29378;SDS011;16362;47.202;15.258;2023-06-19T14:13:06;11.18;;;10.30;;
29378;SDS011;16362;47.202;15.258;2023-06-19T14:15:33;10.85;;;10.00;;
29378;SDS011;16362;47.202;15.258;2023-06-19T14:18:00;11.45;;;10.30;;
29378;SDS011;16362;47.202;15.258;2023-06-19T14:20:26;10.82;;;10.10;;
29378;SDS011;16362;47.202;15.258;2023-06-19T14:22:53;11.07;;;10.27;;
29378;SDS011;16362;47.202;15.258;2023-06-19T14:25:20;12.02;;;10.70;;
29378;SDS011;16362;47.202;15.258;2023-06-19T14:27:47;10.35;;;9.65;;
29378;SDS011;16362;47.202;15.258;2023-06-19T14:30:13;10.68;;;9.90;;
29378;SDS011;16362;47.202;15.258;2023-06-19T14:32:40;10.18;;;9.68;;
29378;SDS011;16362;47.202;15.258;2023-06-19T14:35:07;20.70;;;10.35;;
29378;SDS011;16362;47.202;15.258;2023-06-19T14:37:34;11.40;;;10.48;;
29378;SDS011;16362;47.202;15.258;2023-06-19T14:40:00;10.15;;;9.57;;
29378;SDS011;16362;47.202;15.258;2023-06-19T14:42:27;10.70;;;10.10;;
29378;SDS011;16362;47.202;15.258;2023-06-19T14:44:54;9.88;;;9.25;;